Heat Index SAI AWOS Graphical Display Untitled Document
Bertrand Chaffee Hospital Heliport (2NK6) Springville, New York, USA
240
06:36
27/07/2017
00
N/A
N/A
30.03
N/A
1420
66(F), 19(C)
62(F), 17(C)
66 F
87%
SCT090 BKN110
10
N/A
0"
N/A
06:36 zulu Wind Calm, Altimeter 30.03
METAR K2NK6 270636Z AUTO 00000KT 10SM SCT090 BKN110 19/17 A3003 A02 P0000
METAR:
FAA Disclaimer--Advisory Use ONLY, not for flight info--
INFO:
Wind Direction:
Wind Speed:
Wind Gust:
Wind Variable:
Altimeter:
Dens Alt:
Elev:
Temp:
Dwpt:
Wind Chill
Rel Humidity:
Ceiling:
Visibility:
Prsnt Wea:
PCPN:
Remarks:
How to read the WebPage